Azuma Maru No.18 — JD2963 — position and weather

sailwx.info

Track history (hours):
 
Tides and Currents Weather Stations Pressure Air Temp Water Temp Dewpoint Dewpoint Depression Visibility Wind Speed Wind Dir Waves Ship Positions

Azuma Maru No.18

Last reported at 2017-Nov-17 17:25 UTC. Time now 2017-Nov-21 21:05 UTC.
Position N 34°01' E 134°60'.

Length 105 m; draft 4.6 m.

Type: Tanker. MMSI: 431001096.

Date/timePositionNaut miles runAvg speedWind from/ knotsBaromVisibWave heightAir tempDewpointWater temp
2017-Nov-17 17:25N 34°01' E 134°60'615.7
2017-Nov-17 17:00N 34°08' E 134°58'1016.9
2017-Nov-17 16:24N 34°18' E 134°58'616.1
2017-Nov-17 16:00N 34°24' E 135°00'815.8
2017-Nov-17 15:30N 34°32' E 135°02'611.4
2017-Nov-17 15:00N 34°37' E 134°59'  
2017-Nov-11 03:27N 34°57' E 139°26'511.1
2017-Nov-11 03:00N 35°00' E 139°31'611.1
2017-Nov-11 02:30N 35°04' E 139°37'511.0
2017-Nov-11 02:00N 35°07' E 139°42'611.0
2017-Nov-11 01:30N 35°12' E 139°46'611.4
2017-Nov-11 01:00N 35°17' E 139°45'612.7
2017-Nov-11 00:30N 35°23' E 139°42'612.3
2017-Nov-11 00:00N 35°27' E 139°48'612.2
2017-Nov-10 23:30N 35°30' E 139°54'6 0.4
2017-Nov-10 07:45N 35°32' E 140°01'0 0.4
2017-Nov-10 06:50N 35°32' E 140°01'1 0.0
2017-Nov-08 23:34N 35°33' E 140°00'2 5.9
2017-Nov-08 23:17N 35°32' E 139°59'410.6
2017-Nov-08 22:52N 35°31' E 139°53'2 5.1
2017-Nov-08 22:28N 35°31' E 139°51'0 0.0
2017-Nov-08 21:55N 35°31' E 139°51'0 0.0
2017-Nov-08 21:25N 35°31' E 139°51'0 0.1
2017-Nov-08 20:58N 35°31' E 139°51'0 0.0
2017-Nov-08 20:28N 35°31' E 139°51'0 0.1
2017-Nov-08 19:55N 35°31' E 139°51'0 0.0
2017-Nov-08 19:30N 35°31' E 139°51'3 6.1
2017-Nov-08 19:01N 35°28' E 139°51'714.2
2017-Nov-08 18:30N 35°22' E 139°45'611.5
2017-Nov-08 18:00N 35°17' E 139°46'612.1
2017-Nov-08 17:30N 35°10' E 139°46'24713.0
2017-Nov-07 22:30N 33°58' E 134°60'715.2
2017-Nov-07 22:00N 34°05' E 134°59'816.1
2017-Nov-07 21:31N 34°13' E 134°58'815.6
2017-Nov-07 20:58N 34°22' E 134°59'715.0
2017-Nov-07 20:30N 34°28' E 135°01'715.0
2017-Nov-07 20:00N 34°35' E 135°03'916.8
2017-Nov-07 19:28N 34°34' E 134°52'  
Track history (hours):
 
Tides and Currents Weather Stations Pressure Air Temp Water Temp Dewpoint Dewpoint Depression Visibility Wind Speed Wind Dir Waves Ship Positions

Azuma Maru No.18

Last reported at 2017-Nov-17 17:25 UTC. Time now 2017-Nov-21 21:05 UTC.
Position N 34°01' E 134°60'.

Length 105 m; draft 4.6 m.

Type: Tanker. MMSI: 431001096.

Date/timePositionNaut miles runAvg speedWind from/ knotsBaromVisibWave heightAir tempDewpointWater temp
2017-Nov-17 17:25N 34°01' E 134°60'615.7
2017-Nov-17 17:00N 34°08' E 134°58'1016.9
2017-Nov-17 16:24N 34°18' E 134°58'616.1
2017-Nov-17 16:00N 34°24' E 135°00'815.8
2017-Nov-17 15:30N 34°32' E 135°02'611.4
2017-Nov-17 15:00N 34°37' E 134°59'  
2017-Nov-11 03:27N 34°57' E 139°26'511.1
2017-Nov-11 03:00N 35°00' E 139°31'611.1
2017-Nov-11 02:30N 35°04' E 139°37'511.0
2017-Nov-11 02:00N 35°07' E 139°42'611.0
2017-Nov-11 01:30N 35°12' E 139°46'611.4
2017-Nov-11 01:00N 35°17' E 139°45'612.7
2017-Nov-11 00:30N 35°23' E 139°42'612.3
2017-Nov-11 00:00N 35°27' E 139°48'612.2
2017-Nov-10 23:30N 35°30' E 139°54'6 0.4
2017-Nov-10 07:45N 35°32' E 140°01'0 0.4
2017-Nov-10 06:50N 35°32' E 140°01'1 0.0
2017-Nov-08 23:34N 35°33' E 140°00'2 5.9
2017-Nov-08 23:17N 35°32' E 139°59'410.6
2017-Nov-08 22:52N 35°31' E 139°53'2 5.1
2017-Nov-08 22:28N 35°31' E 139°51'0 0.0
2017-Nov-08 21:55N 35°31' E 139°51'0 0.0
2017-Nov-08 21:25N 35°31' E 139°51'0 0.1
2017-Nov-08 20:58N 35°31' E 139°51'0 0.0
2017-Nov-08 20:28N 35°31' E 139°51'0 0.1
2017-Nov-08 19:55N 35°31' E 139°51'0 0.0
2017-Nov-08 19:30N 35°31' E 139°51'3 6.1
2017-Nov-08 19:01N 35°28' E 139°51'714.2
2017-Nov-08 18:30N 35°22' E 139°45'611.5
2017-Nov-08 18:00N 35°17' E 139°46'612.1
2017-Nov-08 17:30N 35°10' E 139°46'24713.0
2017-Nov-07 22:30N 33°58' E 134°60'715.2
2017-Nov-07 22:00N 34°05' E 134°59'816.1
2017-Nov-07 21:31N 34°13' E 134°58'815.6
2017-Nov-07 20:58N 34°22' E 134°59'715.0
2017-Nov-07 20:30N 34°28' E 135°01'715.0
2017-Nov-07 20:00N 34°35' E 135°03'916.8
2017-Nov-07 19:28N 34°34' E 134°52'  

Dump ship's entire track history